sensor_id;sensor_type;location;lat;lon;timestamp;temperature;humidity
49124;DHT22;48506;48.202;16.274;2022-08-25T00:01:45;22.80;99.40
49124;DHT22;48506;48.202;16.274;2022-08-25T00:04:12;22.80;99.40
49124;DHT22;48506;48.202;16.274;2022-08-25T00:06:42;22.80;99.40
49124;DHT22;48506;48.202;16.274;2022-08-25T00:09:10;22.80;99.70
49124;DHT22;48506;48.202;16.274;2022-08-25T00:11:38;22.80;99.50
49124;DHT22;48506;48.202;16.274;2022-08-25T00:14:17;22.80;99.40
49124;DHT22;48506;48.202;16.274;2022-08-25T00:16:43;22.80;99.40
49124;DHT22;48506;48.202;16.274;2022-08-25T00:19:14;22.80;99.40
49124;DHT22;48506;48.202;16.274;2022-08-25T00:21:42;22.80;99.40
49124;DHT22;48506;48.202;16.274;2022-08-25T00:24:09;22.70;99.40
49124;DHT22;48506;48.202;16.274;2022-08-25T00:26:39;22.70;99.40
49124;DHT22;48506;48.202;16.274;2022-08-25T00:29:05;22.70;99.50
49124;DHT22;48506;48.202;16.274;2022-08-25T00:31:32;22.60;99.60
49124;DHT22;48506;48.202;16.274;2022-08-25T00:33:58;22.50;99.60
49124;DHT22;48506;48.202;16.274;2022-08-25T00:36:24;22.50;99.60
49124;DHT22;48506;48.202;16.274;2022-08-25T00:38:53;22.50;99.80
49124;DHT22;48506;48.202;16.274;2022-08-25T00:41:21;22.50;99.80
49124;DHT22;48506;48.202;16.274;2022-08-25T00:44:02;22.40;99.90
49124;DHT22;48506;48.202;16.274;2022-08-25T00:46:32;22.50;99.80
49124;DHT22;48506;48.202;16.274;2022-08-25T00:49:04;22.40;99.80
49124;DHT22;48506;48.202;16.274;2022-08-25T00:54:34;22.40;99.90
49124;DHT22;48506;48.202;16.274;2022-08-25T00:57:04;22.40;99.90
49124;DHT22;48506;48.202;16.274;2022-08-25T00:59:31;22.40;99.90
49124;DHT22;48506;48.202;16.274;2022-08-25T01:01:59;22.40;99.90
49124;DHT22;48506;48.202;16.274;2022-08-25T01:04:25;22.40;99.90
49124;DHT22;48506;48.202;16.274;2022-08-25T01:06:52;22.40;99.90
49124;DHT22;48506;48.202;16.274;2022-08-25T01:09:18;22.40;99.90
49124;DHT22;48506;48.202;16.274;2022-08-25T01:11:46;22.40;99.90
49124;DHT22;48506;48.202;16.274;2022-08-25T01:14:15;22.40;99.90
49124;DHT22;48506;48.202;16.274;2022-08-25T01:16:42;22.40;99.90
49124;DHT22;48506;48.202;16.274;2022-08-25T01:19:09;22.30;99.90
49124;DHT22;48506;48.202;16.274;2022-08-25T01:21:47;22.30;99.90
49124;DHT22;48506;48.202;16.274;2022-08-25T01:24:41;22.30;99.90
49124;DHT22;48506;48.202;16.274;2022-08-25T01:27:09;22.30;99.90
49124;DHT22;48506;48.202;16.274;2022-08-25T01:29:36;22.30;99.90
49124;DHT22;48506;48.202;16.274;2022-08-25T01:32:09;22.30;99.90
49124;DHT22;48506;48.202;16.274;2022-08-25T01:34:39;22.30;99.90
49124;DHT22;48506;48.202;16.274;2022-08-25T01:37:07;22.30;99.90
49124;DHT22;48506;48.202;16.274;2022-08-25T01:39:34;22.30;99.90
49124;DHT22;48506;48.202;16.274;2022-08-25T01:42:23;22.30;99.90
49124;DHT22;48506;48.202;16.274;2022-08-25T01:44:53;22.30;99.90
49124;DHT22;48506;48.202;16.274;2022-08-25T01:47:19;22.30;99.90
49124;DHT22;48506;48.202;16.274;2022-08-25T01:49:45;22.30;99.90
49124;DHT22;48506;48.202;16.274;2022-08-25T01:52:37;22.30;99.90
49124;DHT22;48506;48.202;16.274;2022-08-25T01:55:11;22.30;99.90
49124;DHT22;48506;48.202;16.274;2022-08-25T01:57:37;22.30;99.90
49124;DHT22;48506;48.202;16.274;2022-08-25T02:00:07;22.20;99.90
49124;DHT22;48506;48.202;16.274;2022-08-25T02:02:34;22.30;99.90
49124;DHT22;48506;48.202;16.274;2022-08-25T02:05:00;22.30;99.90
49124;DHT22;48506;48.202;16.274;2022-08-25T02:07:26;22.20;99.90
49124;DHT22;48506;48.202;16.274;2022-08-25T02:09:52;22.20;99.90
49124;DHT22;48506;48.202;16.274;2022-08-25T02:12:18;22.20;99.90
49124;DHT22;48506;48.202;16.274;2022-08-25T02:14:44;22.20;99.90
49124;DHT22;48506;48.202;16.274;2022-08-25T02:17:11;22.30;99.90
49124;DHT22;48506;48.202;16.274;2022-08-25T02:19:37;22.30;99.90
49124;DHT22;48506;48.202;16.274;2022-08-25T02:22:03;22.30;99.90
49124;DHT22;48506;48.202;16.274;2022-08-25T02:24:31;22.30;99.90
49124;DHT22;48506;48.202;16.274;2022-08-25T02:26:58;22.30;99.90
49124;DHT22;48506;48.202;16.274;2022-08-25T02:29:27;22.30;99.90
49124;DHT22;48506;48.202;16.274;2022-08-25T02:31:52;22.30;99.90
49124;DHT22;48506;48.202;16.274;2022-08-25T02:34:18;22.30;99.90
49124;DHT22;48506;48.202;16.274;2022-08-25T02:36:44;22.30;99.90
49124;DHT22;48506;48.202;16.274;2022-08-25T02:39:11;22.30;99.90
49124;DHT22;48506;48.202;16.274;2022-08-25T02:41:38;22.30;99.90
49124;DHT22;48506;48.202;16.274;2022-08-25T02:44:05;22.30;99.90
49124;DHT22;48506;48.202;16.274;2022-08-25T02:46:31;22.30;99.90
49124;DHT22;48506;48.202;16.274;2022-08-25T02:48:58;22.40;99.90
49124;DHT22;48506;48.202;16.274;2022-08-25T02:51:24;22.40;99.90
49124;DHT22;48506;48.202;16.274;2022-08-25T02:53:51;22.40;99.90
49124;DHT22;48506;48.202;16.274;2022-08-25T02:56:18;22.40;99.90
49124;DHT22;48506;48.202;16.274;2022-08-25T02:58:45;22.40;99.90
49124;DHT22;48506;48.202;16.274;2022-08-25T03:01:12;22.30;99.90
49124;DHT22;48506;48.202;16.274;2022-08-25T03:03:39;22.40;99.90
49124;DHT22;48506;48.202;16.274;2022-08-25T03:06:07;22.40;99.90
49124;DHT22;48506;48.202;16.274;2022-08-25T03:08:35;22.40;99.90
49124;DHT22;48506;48.202;16.274;2022-08-25T03:11:02;22.40;99.90
49124;DHT22;48506;48.202;16.274;2022-08-25T03:13:28;22.40;99.90
49124;DHT22;48506;48.202;16.274;2022-08-25T03:15:54;22.40;99.90
49124;DHT22;48506;48.202;16.274;2022-08-25T03:18:19;22.30;99.90
49124;DHT22;48506;48.202;16.274;2022-08-25T03:20:47;22.30;99.90
49124;DHT22;48506;48.202;16.274;2022-08-25T03:23:13;22.30;99.90
49124;DHT22;48506;48.202;16.274;2022-08-25T03:25:40;22.30;99.90
49124;DHT22;48506;48.202;16.274;2022-08-25T03:28:24;22.30;99.90
49124;DHT22;48506;48.202;16.274;2022-08-25T03:30:52;22.30;99.90
49124;DHT22;48506;48.202;16.274;2022-08-25T03:33:19;22.30;99.90
49124;DHT22;48506;48.202;16.274;2022-08-25T03:35:45;22.30;99.90
49124;DHT22;48506;48.202;16.274;2022-08-25T03:38:10;22.20;99.90
49124;DHT22;48506;48.202;16.274;2022-08-25T03:40:37;22.20;99.90
49124;DHT22;48506;48.202;16.274;2022-08-25T03:43:03;22.30;99.90
49124;DHT22;48506;48.202;16.274;2022-08-25T03:45:29;22.30;99.90
49124;DHT22;48506;48.202;16.274;2022-08-25T03:47:56;22.30;99.90
49124;DHT22;48506;48.202;16.274;2022-08-25T03:50:22;22.20;99.90
49124;DHT22;48506;48.202;16.274;2022-08-25T03:52:54;22.20;99.90
49124;DHT22;48506;48.202;16.274;2022-08-25T03:55:23;22.20;99.90
49124;DHT22;48506;48.202;16.274;2022-08-25T03:57:51;22.20;99.90
49124;DHT22;48506;48.202;16.274;2022-08-25T04:00:18;22.20;99.90
49124;DHT22;48506;48.202;16.274;2022-08-25T04:02:44;22.20;99.90
49124;DHT22;48506;48.202;16.274;2022-08-25T04:05:11;22.20;99.90
49124;DHT22;48506;48.202;16.274;2022-08-25T04:07:38;22.20;99.90
49124;DHT22;48506;48.202;16.274;2022-08-25T04:10:05;22.20;99.90
49124;DHT22;48506;48.202;16.274;2022-08-25T04:12:33;22.20;99.90
49124;DHT22;48506;48.202;16.274;2022-08-25T04:14:59;22.30;99.90
49124;DHT22;48506;48.202;16.274;2022-08-25T04:17:26;22.30;99.90
49124;DHT22;48506;48.202;16.274;2022-08-25T04:19:52;22.30;99.90
49124;DHT22;48506;48.202;16.274;2022-08-25T04:22:18;22.30;99.90
49124;DHT22;48506;48.202;16.274;2022-08-25T04:24:44;22.20;99.90
49124;DHT22;48506;48.202;16.274;2022-08-25T04:27:10;22.30;99.90
49124;DHT22;48506;48.202;16.274;2022-08-25T04:29:36;22.30;99.90
49124;DHT22;48506;48.202;16.274;2022-08-25T04:32:02;22.30;99.90
49124;DHT22;48506;48.202;16.274;2022-08-25T04:34:28;22.30;99.90
49124;DHT22;48506;48.202;16.274;2022-08-25T04:36:55;22.30;99.90
49124;DHT22;48506;48.202;16.274;2022-08-25T04:39:20;22.20;99.90
49124;DHT22;48506;48.202;16.274;2022-08-25T04:41:47;22.20;99.90
49124;DHT22;48506;48.202;16.274;2022-08-25T04:44:14;22.10;99.90
49124;DHT22;48506;48.202;16.274;2022-08-25T04:46:40;22.10;99.90
49124;DHT22;48506;48.202;16.274;2022-08-25T04:49:06;22.20;99.90
49124;DHT22;48506;48.202;16.274;2022-08-25T04:51:36;22.20;99.90
49124;DHT22;48506;48.202;16.274;2022-08-25T04:54:06;22.20;99.90
49124;DHT22;48506;48.202;16.274;2022-08-25T04:56:33;22.20;99.90
49124;DHT22;48506;48.202;16.274;2022-08-25T04:59:05;22.20;99.90
49124;DHT22;48506;48.202;16.274;2022-08-25T05:01:32;22.20;99.90
49124;DHT22;48506;48.202;16.274;2022-08-25T05:04:01;22.20;99.90
49124;DHT22;48506;48.202;16.274;2022-08-25T05:06:29;22.10;99.90
49124;DHT22;48506;48.202;16.274;2022-08-25T05:08:56;22.20;99.90
49124;DHT22;48506;48.202;16.274;2022-08-25T05:11:23;22.20;99.90
49124;DHT22;48506;48.202;16.274;2022-08-25T05:13:52;22.20;99.90
49124;DHT22;48506;48.202;16.274;2022-08-25T05:16:20;22.20;99.90
49124;DHT22;48506;48.202;16.274;2022-08-25T05:18:47;22.20;99.90
49124;DHT22;48506;48.202;16.274;2022-08-25T05:21:18;22.20;99.90
49124;DHT22;48506;48.202;16.274;2022-08-25T05:23:46;22.30;99.90
49124;DHT22;48506;48.202;16.274;2022-08-25T05:26:16;22.30;99.90
49124;DHT22;48506;48.202;16.274;2022-08-25T05:28:42;22.30;99.90
49124;DHT22;48506;48.202;16.274;2022-08-25T05:31:10;22.30;99.90
49124;DHT22;48506;48.202;16.274;2022-08-25T05:33:38;22.30;99.90
49124;DHT22;48506;48.202;16.274;2022-08-25T05:36:05;22.30;99.90
49124;DHT22;48506;48.202;16.274;2022-08-25T05:38:31;22.30;99.90
49124;DHT22;48506;48.202;16.274;2022-08-25T05:41:00;22.30;99.90
49124;DHT22;48506;48.202;16.274;2022-08-25T05:43:27;22.40;99.90
49124;DHT22;48506;48.202;16.274;2022-08-25T05:45:55;22.40;99.90
49124;DHT22;48506;48.202;16.274;2022-08-25T05:48:21;22.40;99.90
49124;DHT22;48506;48.202;16.274;2022-08-25T05:50:56;22.40;99.90
49124;DHT22;48506;48.202;16.274;2022-08-25T05:53:23;22.40;99.90
49124;DHT22;48506;48.202;16.274;2022-08-25T05:55:51;22.40;99.90
49124;DHT22;48506;48.202;16.274;2022-08-25T05:58:18;22.50;99.90
49124;DHT22;48506;48.202;16.274;2022-08-25T06:00:45;22.50;99.90
49124;DHT22;48506;48.202;16.274;2022-08-25T06:03:11;22.60;99.90
49124;DHT22;48506;48.202;16.274;2022-08-25T06:05:37;22.60;99.90
49124;DHT22;48506;48.202;16.274;2022-08-25T06:08:03;22.60;99.90
49124;DHT22;48506;48.202;16.274;2022-08-25T06:10:30;22.60;99.90
49124;DHT22;48506;48.202;16.274;2022-08-25T06:12:56;22.70;99.90
49124;DHT22;48506;48.202;16.274;2022-08-25T06:15:23;22.70;99.90
49124;DHT22;48506;48.202;16.274;2022-08-25T06:17:50;22.70;99.90
49124;DHT22;48506;48.202;16.274;2022-08-25T06:20:24;22.70;99.90
49124;DHT22;48506;48.202;16.274;2022-08-25T06:22:51;22.70;99.90
49124;DHT22;48506;48.202;16.274;2022-08-25T06:25:20;22.70;99.90
49124;DHT22;48506;48.202;16.274;2022-08-25T06:27:47;22.60;99.90
49124;DHT22;48506;48.202;16.274;2022-08-25T06:30:15;22.60;99.90
49124;DHT22;48506;48.202;16.274;2022-08-25T06:32:44;22.70;99.90
49124;DHT22;48506;48.202;16.274;2022-08-25T06:35:16;22.70;99.90
49124;DHT22;48506;48.202;16.274;2022-08-25T06:37:43;22.70;99.90
49124;DHT22;48506;48.202;16.274;2022-08-25T06:40:10;22.80;99.90
49124;DHT22;48506;48.202;16.274;2022-08-25T06:42:36;22.80;99.90
49124;DHT22;48506;48.202;16.274;2022-08-25T06:45:03;22.90;99.90
49124;DHT22;48506;48.202;16.274;2022-08-25T06:47:30;22.90;99.90
49124;DHT22;48506;48.202;16.274;2022-08-25T06:49:57;22.90;99.90
49124;DHT22;48506;48.202;16.274;2022-08-25T06:52:24;22.90;99.90
49124;DHT22;48506;48.202;16.274;2022-08-25T06:54:50;23.00;99.90
49124;DHT22;48506;48.202;16.274;2022-08-25T06:57:18;23.00;99.90
49124;DHT22;48506;48.202;16.274;2022-08-25T06:59:44;23.00;99.90
49124;DHT22;48506;48.202;16.274;2022-08-25T07:02:10;23.00;99.90
49124;DHT22;48506;48.202;16.274;2022-08-25T07:04:36;23.00;99.90
49124;DHT22;48506;48.202;16.274;2022-08-25T07:07:03;23.00;99.90
49124;DHT22;48506;48.202;16.274;2022-08-25T07:09:30;23.00;99.90
49124;DHT22;48506;48.202;16.274;2022-08-25T07:11:56;23.10;99.90
49124;DHT22;48506;48.202;16.274;2022-08-25T07:14:23;23.20;99.90
49124;DHT22;48506;48.202;16.274;2022-08-25T07:16:52;23.20;99.90
49124;DHT22;48506;48.202;16.274;2022-08-25T07:19:18;23.30;99.90
49124;DHT22;48506;48.202;16.274;2022-08-25T07:21:50;23.30;99.90
49124;DHT22;48506;48.202;16.274;2022-08-25T07:24:17;23.40;99.90
49124;DHT22;48506;48.202;16.274;2022-08-25T07:26:45;23.40;99.90
49124;DHT22;48506;48.202;16.274;2022-08-25T07:29:22;23.40;99.90
49124;DHT22;48506;48.202;16.274;2022-08-25T07:31:49;23.40;99.90
49124;DHT22;48506;48.202;16.274;2022-08-25T07:34:16;23.30;99.90
49124;DHT22;48506;48.202;16.274;2022-08-25T07:37:09;23.30;99.90
49124;DHT22;48506;48.202;16.274;2022-08-25T07:39:36;23.30;99.90
49124;DHT22;48506;48.202;16.274;2022-08-25T07:42:02;23.30;99.90
49124;DHT22;48506;48.202;16.274;2022-08-25T07:44:29;23.30;99.90
49124;DHT22;48506;48.202;16.274;2022-08-25T07:46:57;23.30;99.90
49124;DHT22;48506;48.202;16.274;2022-08-25T07:49:25;23.30;99.90
49124;DHT22;48506;48.202;16.274;2022-08-25T07:51:52;23.40;99.90
49124;DHT22;48506;48.202;16.274;2022-08-25T07:54:19;23.70;99.90
49124;DHT22;48506;48.202;16.274;2022-08-25T07:56:46;23.80;99.90
49124;DHT22;48506;48.202;16.274;2022-08-25T07:59:12;23.80;99.90
49124;DHT22;48506;48.202;16.274;2022-08-25T08:01:39;23.70;99.90
49124;DHT22;48506;48.202;16.274;2022-08-25T08:04:05;23.70;99.90
49124;DHT22;48506;48.202;16.274;2022-08-25T08:06:31;23.70;99.90
49124;DHT22;48506;48.202;16.274;2022-08-25T08:08:59;23.60;99.90
49124;DHT22;48506;48.202;16.274;2022-08-25T08:11:29;23.40;99.90
49124;DHT22;48506;48.202;16.274;2022-08-25T08:13:56;23.40;99.90
49124;DHT22;48506;48.202;16.274;2022-08-25T08:16:26;23.40;99.90
49124;DHT22;48506;48.202;16.274;2022-08-25T08:18:52;23.50;99.90
49124;DHT22;48506;48.202;16.274;2022-08-25T08:21:23;23.50;99.90
49124;DHT22;48506;48.202;16.274;2022-08-25T08:23:51;23.60;99.90
49124;DHT22;48506;48.202;16.274;2022-08-25T08:26:17;23.70;99.90
49124;DHT22;48506;48.202;16.274;2022-08-25T08:28:45;23.70;99.90
49124;DHT22;48506;48.202;16.274;2022-08-25T08:31:11;23.80;99.90
49124;DHT22;48506;48.202;16.274;2022-08-25T08:33:38;24.00;99.90
49124;DHT22;48506;48.202;16.274;2022-08-25T08:36:09;24.20;99.60
49124;DHT22;48506;48.202;16.274;2022-08-25T08:38:37;24.60;99.40
49124;DHT22;48506;48.202;16.274;2022-08-25T08:44:25;25.30;98.60
49124;DHT22;48506;48.202;16.274;2022-08-25T08:47:27;25.60;97.50
49124;DHT22;48506;48.202;16.274;2022-08-25T08:52:51;25.80;97.10
49124;DHT22;48506;48.202;16.274;2022-08-25T08:55:29;25.80;96.70
49124;DHT22;48506;48.202;16.274;2022-08-25T08:57:58;25.90;96.50
49124;DHT22;48506;48.202;16.274;2022-08-25T09:00:27;25.90;97.00
49124;DHT22;48506;48.202;16.274;2022-08-25T09:03:05;26.10;96.40
49124;DHT22;48506;48.202;16.274;2022-08-25T09:05:47;25.90;96.00
49124;DHT22;48506;48.202;16.274;2022-08-25T09:08:15;25.80;96.60
49124;DHT22;48506;48.202;16.274;2022-08-25T09:11:09;25.80;96.70
49124;DHT22;48506;48.202;16.274;2022-08-25T09:16:51;25.50;96.40
49124;DHT22;48506;48.202;16.274;2022-08-25T09:19:43;25.30;96.60
49124;DHT22;48506;48.202;16.274;2022-08-25T09:30:07;25.40;97.00
49124;DHT22;48506;48.202;16.274;2022-08-25T09:32:43;25.50;96.50
49124;DHT22;48506;48.202;16.274;2022-08-25T09:35:21;25.90;96.60
49124;DHT22;48506;48.202;16.274;2022-08-25T09:38:15;26.30;96.20
49124;DHT22;48506;48.202;16.274;2022-08-25T09:40:47;26.60;95.20
49124;DHT22;48506;48.202;16.274;2022-08-25T09:46:12;26.80;94.40
49124;DHT22;48506;48.202;16.274;2022-08-25T09:48:49;26.90;94.10
49124;DHT22;48506;48.202;16.274;2022-08-25T09:51:31;27.20;94.80
49124;DHT22;48506;48.202;16.274;2022-08-25T09:54:04;27.60;94.10
49124;DHT22;48506;48.202;16.274;2022-08-25T09:56:33;27.90;93.10
49124;DHT22;48506;48.202;16.274;2022-08-25T10:01:57;28.20;92.10
49124;DHT22;48506;48.202;16.274;2022-08-25T10:04:32;28.20;92.70
49124;DHT22;48506;48.202;16.274;2022-08-25T10:07:23;28.40;92.10
49124;DHT22;48506;48.202;16.274;2022-08-25T10:09:53;28.60;92.10
49124;DHT22;48506;48.202;16.274;2022-08-25T10:12:41;28.80;91.30
49124;DHT22;48506;48.202;16.274;2022-08-25T10:15:33;28.90;90.10
49124;DHT22;48506;48.202;16.274;2022-08-25T10:18:21;28.80;90.80
49124;DHT22;48506;48.202;16.274;2022-08-25T10:23:28;29.50;89.30
49124;DHT22;48506;48.202;16.274;2022-08-25T10:25:59;29.60;88.60
49124;DHT22;48506;48.202;16.274;2022-08-25T10:29:03;29.60;86.90
49124;DHT22;48506;48.202;16.274;2022-08-25T10:31:43;29.40;86.50
49124;DHT22;48506;48.202;16.274;2022-08-25T10:45:21;30.10;85.00
49124;DHT22;48506;48.202;16.274;2022-08-25T10:48:16;30.30;86.00
49124;DHT22;48506;48.202;16.274;2022-08-25T10:56:07;31.40;85.10
49124;DHT22;48506;48.202;16.274;2022-08-25T11:06:43;32.50;80.00
49124;DHT22;48506;48.202;16.274;2022-08-25T11:09:17;32.80;77.00
49124;DHT22;48506;48.202;16.274;2022-08-25T11:12:02;32.80;75.90
49124;DHT22;48506;48.202;16.274;2022-08-25T11:14:30;32.60;76.10
49124;DHT22;48506;48.202;16.274;2022-08-25T11:19:36;32.60;74.80
49124;DHT22;48506;48.202;16.274;2022-08-25T11:24:40;32.40;75.40
49124;DHT22;48506;48.202;16.274;2022-08-25T11:27:14;32.60;74.00
49124;DHT22;48506;48.202;16.274;2022-08-25T11:29:52;32.70;74.40
49124;DHT22;48506;48.202;16.274;2022-08-25T11:32:19;33.00;75.50
49124;DHT22;48506;48.202;16.274;2022-08-25T11:34:51;33.20;72.40
49124;DHT22;48506;48.202;16.274;2022-08-25T11:37:23;33.40;72.30
49124;DHT22;48506;48.202;16.274;2022-08-25T11:45:49;33.60;71.50
49124;DHT22;48506;48.202;16.274;2022-08-25T11:51:10;33.30;70.50
49124;DHT22;48506;48.202;16.274;2022-08-25T11:53:38;33.10;69.40
49124;DHT22;48506;48.202;16.274;2022-08-25T11:56:11;33.00;71.80
49124;DHT22;48506;48.202;16.274;2022-08-25T11:58:44;33.00;71.20
49124;DHT22;48506;48.202;16.274;2022-08-25T12:04:15;32.80;71.10
49124;DHT22;48506;48.202;16.274;2022-08-25T12:28:46;30.70;74.10
49124;DHT22;48506;48.202;16.274;2022-08-25T12:31:29;30.70;74.50
49124;DHT22;48506;48.202;16.274;2022-08-25T12:34:01;30.80;74.60
49124;DHT22;48506;48.202;16.274;2022-08-25T12:36:33;30.80;75.30
49124;DHT22;48506;48.202;16.274;2022-08-25T12:39:19;30.70;74.10
49124;DHT22;48506;48.202;16.274;2022-08-25T12:41:58;30.80;73.60
49124;DHT22;48506;48.202;16.274;2022-08-25T12:49:45;31.50;74.70
49124;DHT22;48506;48.202;16.274;2022-08-25T12:52:20;31.70;73.50
49124;DHT22;48506;48.202;16.274;2022-08-25T12:54:51;31.60;73.40
49124;DHT22;48506;48.202;16.274;2022-08-25T12:59:49;31.20;72.70
49124;DHT22;48506;48.202;16.274;2022-08-25T13:02:37;31.20;73.10
49124;DHT22;48506;48.202;16.274;2022-08-25T13:11:14;31.70;71.30
49124;DHT22;48506;48.202;16.274;2022-08-25T13:14:05;31.90;71.20
49124;DHT22;48506;48.202;16.274;2022-08-25T13:16:33;31.70;69.30
49124;DHT22;48506;48.202;16.274;2022-08-25T13:19:04;31.50;71.10
49124;DHT22;48506;48.202;16.274;2022-08-25T13:21:41;31.50;72.20
49124;DHT22;48506;48.202;16.274;2022-08-25T13:24:21;31.50;71.70
49124;DHT22;48506;48.202;16.274;2022-08-25T13:26:56;31.40;71.70
49124;DHT22;48506;48.202;16.274;2022-08-25T13:29:26;31.30;71.10
49124;DHT22;48506;48.202;16.274;2022-08-25T13:31:58;31.30;72.80
49124;DHT22;48506;48.202;16.274;2022-08-25T13:34:28;31.30;71.30
49124;DHT22;48506;48.202;16.274;2022-08-25T13:36:55;31.50;70.40
49124;DHT22;48506;48.202;16.274;2022-08-25T13:39:40;31.70;71.00
49124;DHT22;48506;48.202;16.274;2022-08-25T13:42:13;31.70;68.90
49124;DHT22;48506;48.202;16.274;2022-08-25T13:44:40;31.70;69.30
49124;DHT22;48506;48.202;16.274;2022-08-25T13:47:13;31.60;71.20
49124;DHT22;48506;48.202;16.274;2022-08-25T13:49:43;31.60;70.50
49124;DHT22;48506;48.202;16.274;2022-08-25T13:52:24;31.50;70.40
49124;DHT22;48506;48.202;16.274;2022-08-25T13:54:57;31.30;70.20
49124;DHT22;48506;48.202;16.274;2022-08-25T13:57:27;31.20;71.70
49124;DHT22;48506;48.202;16.274;2022-08-25T13:59:59;31.10;72.00
49124;DHT22;48506;48.202;16.274;2022-08-25T14:02:45;31.10;72.20
49124;DHT22;48506;48.202;16.274;2022-08-25T14:05:13;31.00;72.20
49124;DHT22;48506;48.202;16.274;2022-08-25T14:07:53;31.00;71.80
49124;DHT22;48506;48.202;16.274;2022-08-25T14:10:36;30.80;70.70
49124;DHT22;48506;48.202;16.274;2022-08-25T14:13:30;30.70;70.70
49124;DHT22;48506;48.202;16.274;2022-08-25T14:16:11;30.60;72.50
49124;DHT22;48506;48.202;16.274;2022-08-25T14:18:47;30.40;72.40
49124;DHT22;48506;48.202;16.274;2022-08-25T14:21:15;30.30;71.90
49124;DHT22;48506;48.202;16.274;2022-08-25T14:23:42;30.20;72.80
49124;DHT22;48506;48.202;16.274;2022-08-25T14:26:08;30.20;72.20
49124;DHT22;48506;48.202;16.274;2022-08-25T14:28:35;30.30;71.90
49124;DHT22;48506;48.202;16.274;2022-08-25T14:31:12;30.40;71.90
49124;DHT22;48506;48.202;16.274;2022-08-25T14:34:18;30.60;71.90
49124;DHT22;48506;48.202;16.274;2022-08-25T14:36:38;30.70;72.30
49124;DHT22;48506;48.202;16.274;2022-08-25T14:39:06;30.50;71.80
49124;DHT22;48506;48.202;16.274;2022-08-25T14:41:34;30.40;69.90
49124;DHT22;48506;48.202;16.274;2022-08-25T14:44:02;30.30;71.00
49124;DHT22;48506;48.202;16.274;2022-08-25T14:46:30;30.20;72.70
49124;DHT22;48506;48.202;16.274;2022-08-25T14:48:59;30.20;71.90
49124;DHT22;48506;48.202;16.274;2022-08-25T14:51:28;30.30;70.60
49124;DHT22;48506;48.202;16.274;2022-08-25T14:54:01;30.40;70.30
49124;DHT22;48506;48.202;16.274;2022-08-25T14:56:29;30.50;70.50
49124;DHT22;48506;48.202;16.274;2022-08-25T14:58:55;30.60;70.40
49124;DHT22;48506;48.202;16.274;2022-08-25T15:01:23;30.60;69.40
49124;DHT22;48506;48.202;16.274;2022-08-25T15:03:53;30.70;69.70
49124;DHT22;48506;48.202;16.274;2022-08-25T15:06:19;30.90;69.60
49124;DHT22;48506;48.202;16.274;2022-08-25T15:08:45;31.00;69.80
49124;DHT22;48506;48.202;16.274;2022-08-25T15:11:29;31.00;69.20
49124;DHT22;48506;48.202;16.274;2022-08-25T15:13:56;31.00;68.80
49124;DHT22;48506;48.202;16.274;2022-08-25T15:16:31;31.00;68.50
49124;DHT22;48506;48.202;16.274;2022-08-25T15:18:57;31.20;68.20
49124;DHT22;48506;48.202;16.274;2022-08-25T15:21:24;31.20;69.20
49124;DHT22;48506;48.202;16.274;2022-08-25T15:23:50;31.20;68.40
49124;DHT22;48506;48.202;16.274;2022-08-25T15:26:17;31.30;69.30
49124;DHT22;48506;48.202;16.274;2022-08-25T15:28:48;31.40;70.10
49124;DHT22;48506;48.202;16.274;2022-08-25T15:31:15;31.50;68.60
49124;DHT22;48506;48.202;16.274;2022-08-25T15:33:42;31.60;68.60
49124;DHT22;48506;48.202;16.274;2022-08-25T15:36:10;31.60;68.30
49124;DHT22;48506;48.202;16.274;2022-08-25T15:38:38;31.80;66.80
49124;DHT22;48506;48.202;16.274;2022-08-25T15:41:05;32.20;67.00
49124;DHT22;48506;48.202;16.274;2022-08-25T15:43:31;32.50;66.20
49124;DHT22;48506;48.202;16.274;2022-08-25T15:45:58;32.70;64.60
49124;DHT22;48506;48.202;16.274;2022-08-25T15:48:24;32.80;64.60
49124;DHT22;48506;48.202;16.274;2022-08-25T15:50:53;32.80;64.70
49124;DHT22;48506;48.202;16.274;2022-08-25T15:53:20;32.60;64.90
49124;DHT22;48506;48.202;16.274;2022-08-25T15:55:49;32.40;65.00
49124;DHT22;48506;48.202;16.274;2022-08-25T15:58:15;32.10;65.00
49124;DHT22;48506;48.202;16.274;2022-08-25T16:00:43;31.70;65.30
49124;DHT22;48506;48.202;16.274;2022-08-25T16:03:10;31.40;67.00
49124;DHT22;48506;48.202;16.274;2022-08-25T16:05:39;31.10;67.70
49124;DHT22;48506;48.202;16.274;2022-08-25T16:08:08;30.90;67.20
49124;DHT22;48506;48.202;16.274;2022-08-25T16:10:39;30.70;67.70
49124;DHT22;48506;48.202;16.274;2022-08-25T16:13:06;30.50;67.90
49124;DHT22;48506;48.202;16.274;2022-08-25T16:15:33;30.40;68.30
49124;DHT22;48506;48.202;16.274;2022-08-25T16:18:02;30.30;69.00
49124;DHT22;48506;48.202;16.274;2022-08-25T16:20:31;30.20;69.90
49124;DHT22;48506;48.202;16.274;2022-08-25T16:22:57;30.10;69.80
49124;DHT22;48506;48.202;16.274;2022-08-25T16:25:26;30.00;69.90
49124;DHT22;48506;48.202;16.274;2022-08-25T16:27:52;29.90;70.00
49124;DHT22;48506;48.202;16.274;2022-08-25T16:30:18;29.80;70.10
49124;DHT22;48506;48.202;16.274;2022-08-25T16:32:45;29.80;70.90
49124;DHT22;48506;48.202;16.274;2022-08-25T16:35:12;29.80;71.00
49124;DHT22;48506;48.202;16.274;2022-08-25T16:37:39;29.70;70.80
49124;DHT22;48506;48.202;16.274;2022-08-25T16:40:07;29.60;71.40
49124;DHT22;48506;48.202;16.274;2022-08-25T16:42:34;29.60;71.30
49124;DHT22;48506;48.202;16.274;2022-08-25T16:45:01;29.50;70.60
49124;DHT22;48506;48.202;16.274;2022-08-25T16:47:28;29.40;71.30
49124;DHT22;48506;48.202;16.274;2022-08-25T16:49:54;29.40;71.30
49124;DHT22;48506;48.202;16.274;2022-08-25T16:52:20;29.30;71.30
49124;DHT22;48506;48.202;16.274;2022-08-25T16:55:05;29.30;71.80
49124;DHT22;48506;48.202;16.274;2022-08-25T16:57:46;29.20;72.10
49124;DHT22;48506;48.202;16.274;2022-08-25T17:00:18;29.10;71.80
49124;DHT22;48506;48.202;16.274;2022-08-25T17:02:46;29.10;71.30
49124;DHT22;48506;48.202;16.274;2022-08-25T17:05:13;29.00;72.30
49124;DHT22;48506;48.202;16.274;2022-08-25T17:07:40;29.00;72.70
49124;DHT22;48506;48.202;16.274;2022-08-25T17:10:07;28.90;73.10
49124;DHT22;48506;48.202;16.274;2022-08-25T17:12:34;28.80;73.50
49124;DHT22;48506;48.202;16.274;2022-08-25T17:15:00;28.80;73.90
49124;DHT22;48506;48.202;16.274;2022-08-25T17:17:26;28.70;74.30
49124;DHT22;48506;48.202;16.274;2022-08-25T17:19:52;28.70;73.80